.
WxDataArchive / Data Records for 2008-09-09
2008-09-08 September 2008 2008-09-10

Data Records for Tuesday, 09 September 2008

Time	Temp	Chill	HIndex	Humid	Dewpt	 Wind 	HiWind	WindDir	Rain 	Barom 
-----	----	-----	------	-----	-----	------	------	-------	-----	----- 
00:00	57.3	57.3	57.3	94	55.6	0	0	---	0.00	29.979 
00:05	57.2	57.2	57.2	94	55.5	0	0	---	0.00	29.979 
00:10	57.2	57.2	57.2	94	55.5	0	0	---	0.00	29.979 
00:15	57.2	57.2	57.2	94	55.5	0	0	---	0.00	29.968 
00:20	57.2	57.2	57.2	94	55.5	0	0	---	0.00	29.968 
00:25	57.2	57.2	57.2	94	55.5	0	1	292	0.04	29.968 
00:30	57.2	57.2	57.2	94	55.5	0	1	292	0.05	29.964 
00:35	57.2	57.2	57.2	94	55.5	0	1	292	0.00	29.964 
00:40	57.2	57.2	57.2	94	55.5	0	0	---	0.01	29.964 
00:45	57.2	57.2	57.2	94	55.5	0	1	292	0.00	29.969 
00:50	57.0	57.0	57.0	94	55.3	0	0	---	0.00	29.969 
00:55	57.0	57.0	57.0	94	55.3	0	0	---	0.00	29.969 
01:00	57.0	57.0	57.0	95	55.6	0	0	---	0.00	29.977 
01:05	57.0	57.0	57.0	95	55.6	0	0	---	0.00	29.977 
01:10	57.0	57.0	57.0	95	55.6	0	0	---	0.00	29.977 
01:15	57.0	57.0	57.0	95	55.6	0	1	292	0.00	29.962 
01:20	56.9	56.9	56.9	95	55.5	0	1	292	0.00	29.962 
01:25	56.9	56.9	56.9	95	55.5	0	0	---	0.00	29.962 
01:30	56.7	56.7	56.7	95	55.3	0	1	292	0.00	29.975 
01:35	56.7	56.7	56.7	95	55.3	0	0	---	0.00	29.975 
01:40	56.7	56.7	56.7	95	55.3	0	0	---	0.00	29.975 
01:45	56.7	56.7	56.7	95	55.3	0	0	---	0.00	29.971 
01:50	56.7	56.7	56.7	95	55.3	0	0	---	0.00	29.971 
01:55	56.7	56.7	56.7	95	55.3	0	1	292	0.00	29.971 
02:00	56.7	56.7	56.7	95	55.3	0	1	292	0.00	30.000 
02:05	56.7	56.7	56.7	95	55.3	0	0	---	0.00	30.000 
02:10	56.6	56.6	56.6	95	55.2	0	0	---	0.01	30.000 
02:15	56.6	56.6	56.6	95	55.2	0	0	---	0.00	29.980 
02:20	56.6	56.6	56.6	95	55.2	0	0	---	0.01	29.980 
02:25	56.6	56.6	56.6	95	55.2	0	1	292	0.00	29.980 
02:30	56.5	56.5	56.5	95	55.1	0	1	292	0.00	29.983 
02:35	56.5	56.5	56.5	95	55.1	0	0	---	0.00	29.983 
02:40	56.5	56.5	56.5	95	55.1	0	1	292	0.00	29.983 
02:45	56.5	56.5	56.5	96	55.4	0	1	292	0.00	29.998 
02:50	56.5	56.5	56.5	95	55.1	0	1	292	0.01	29.998 
02:55	56.2	56.2	56.2	95	54.8	0	1	292	0.01	29.998 
03:00	56.0	56.0	56.0	95	54.6	0	1	292	0.01	30.001 
03:05	55.9	55.9	55.9	95	54.5	0	1	292	0.00	30.001 
03:10	55.9	55.9	55.9	95	54.5	0	0	---	0.01	30.001 
03:15	55.9	55.9	55.9	95	54.5	0	0	---	0.00	29.983 
03:20	55.9	55.9	55.9	95	54.5	0	1	292	0.00	29.983 
03:25	55.7	55.7	55.7	96	54.6	0	1	292	0.00	29.983 
03:30	55.7	55.7	55.7	95	54.3	0	4	292	0.00	29.985 
03:35	55.6	55.6	55.6	95	54.2	0	3	248	0.00	29.985 
03:40	55.6	55.6	55.6	95	54.2	0	1	248	0.00	29.985 
03:45	55.4	55.4	55.4	95	54.0	0	1	248	0.00	29.987 
03:50	55.4	55.4	55.4	95	54.0	0	1	248	0.00	29.987 
03:55	55.3	55.3	55.3	95	53.9	0	2	248	0.00	29.987 
04:00	55.1	55.1	55.1	95	53.7	0	0	---	0.00	29.988 
04:05	55.1	55.1	55.1	95	53.7	0	0	---	0.00	29.988 
04:10	55.1	55.1	55.1	95	53.7	0	1	248	0.00	29.988 
04:15	55.1	55.1	55.1	95	53.7	0	0	---	0.00	29.995 
04:20	55.1	55.1	55.1	95	53.7	0	1	248	0.00	29.995 
04:25	55.1	55.1	55.1	95	53.7	0	0	---	0.00	29.995 
04:30	55.1	55.1	55.1	95	53.7	0	0	---	0.00	29.999 
04:35	55.1	55.1	55.1	95	53.7	0	1	248	0.00	29.999 
04:40	55.0	55.0	55.0	95	53.6	0	0	---	0.00	29.999 
04:45	55.0	55.0	55.0	95	53.6	0	0	---	0.00	30.013 
04:50	55.0	55.0	55.0	95	53.6	0	0	---	0.00	30.013 
04:55	55.1	55.1	55.1	95	53.7	0	0	---	0.00	30.013 
05:00	55.1	55.1	55.1	95	53.7	0	0	---	0.00	30.013 
05:05	55.1	55.1	55.1	95	53.7	0	0	---	0.00	30.013 
05:10	55.1	55.1	55.1	95	53.7	0	0	---	0.00	30.013 
05:15	55.1	55.1	55.1	95	53.7	0	0	---	0.00	30.016 
05:20	55.0	55.0	55.0	95	53.6	0	0	---	0.00	30.016 
05:25	55.0	55.0	55.0	95	53.6	0	0	---	0.00	30.016 
05:30	55.0	55.0	55.0	95	53.6	0	0	---	0.00	30.015 
05:35	55.0	55.0	55.0	95	53.6	0	1	248	0.00	30.015 
05:40	55.0	55.0	55.0	95	53.6	0	1	248	0.00	30.015 
05:45	55.0	55.0	55.0	95	53.6	0	1	248	0.01	30.018 
05:50	55.0	55.0	55.0	95	53.6	0	1	248	0.00	30.018 
05:55	55.0	55.0	55.0	95	53.6	0	0	---	0.00	30.018 
06:00	55.0	55.0	55.0	95	53.6	0	0	---	0.00	30.021 
06:05	55.0	55.0	55.0	95	53.6	0	0	---	0.00	30.021 
06:10	55.0	55.0	55.0	95	53.6	0	0	---	0.00	30.021 
06:15	54.8	54.8	54.8	95	53.4	0	0	---	0.00	30.026 
06:20	54.7	54.7	54.7	95	53.3	0	0	---	0.00	30.026 
06:25	54.7	54.7	54.7	95	53.3	0	0	---	0.00	30.026 
06:30	54.5	54.5	54.5	95	53.1	0	0	---	0.00	30.028 
06:35	54.4	54.4	54.4	95	53.0	0	0	---	0.00	30.028 
06:40	54.2	54.2	54.2	95	52.8	0	0	---	0.00	30.028 
06:45	54.1	54.1	54.1	95	52.7	0	0	---	0.00	30.035 
06:50	53.9	53.9	53.9	95	52.5	0	0	---	0.00	30.035 
06:55	53.9	53.9	53.9	95	52.5	0	0	---	0.00	30.035 
07:00	53.8	53.8	53.8	95	52.4	0	0	---	0.00	30.041 
07:05	53.8	53.8	53.8	95	52.4	0	0	---	0.00	30.041 
07:10	53.9	53.9	53.9	95	52.5	0	0	---	0.00	30.041 
07:15	54.2	54.2	54.2	96	53.1	0	0	---	0.00	30.049 
07:20	54.5	54.5	54.5	96	53.4	0	0	---	0.00	30.049 
07:25	54.7	54.7	54.7	96	53.6	0	0	---	0.00	30.049 
07:30	55.0	55.0	55.0	96	53.9	0	1	248	0.00	30.051 
07:35	55.1	55.1	55.1	96	54.0	0	0	---	0.00	30.051 
07:40	55.3	55.3	55.3	95	53.9	0	1	248	0.00	30.051 
07:45	55.3	55.3	55.3	95	53.9	0	1	248	0.00	30.061 
07:50	55.3	55.3	55.3	95	53.9	0	1	248	0.00	30.061 
07:55	55.3	55.3	55.3	95	53.9	0	1	248	0.00	30.061 
08:00	55.4	55.4	55.4	95	54.0	0	1	248	0.00	30.060 
08:05	55.6	55.6	55.6	94	53.9	0	1	248	0.00	30.060 
08:10	55.7	55.7	55.7	93	53.7	0	1	248	0.00	30.060 
08:15	55.6	55.6	55.6	92	53.3	0	1	248	0.00	30.065 
08:20	55.9	55.9	55.9	92	53.6	0	0	---	0.00	30.065 
08:25	56.0	56.0	56.0	91	53.4	0	1	248	0.00	30.065 
08:30	56.3	56.3	56.3	90	53.4	0	1	248	0.00	30.066 
08:35	56.5	56.5	56.5	89	53.3	0	1	248	0.00	30.066 
08:40	56.7	56.7	56.7	88	53.2	0	1	248	0.00	30.066 
08:45	57.2	57.2	57.2	86	53.0	0	1	248	0.00	30.068 
08:50	57.5	57.5	57.5	85	53.0	0	2	248	0.00	30.068 
08:55	58.0	58.0	58.0	84	53.2	0	2	248	0.00	30.068 
09:00	58.4	58.4	58.4	80	52.3	0	2	248	0.00	30.069 
09:05	58.9	58.9	58.9	79	52.4	0	2	270	0.00	30.069 
09:10	59.2	59.2	59.2	78	52.3	0	1	270	0.00	30.069 
09:15	59.8	59.8	59.8	77	52.6	0	1	270	0.00	30.077 
09:20	60.1	60.1	60.1	76	52.5	1	3	315	0.00	30.077 
09:25	60.1	60.1	60.1	75	52.1	1	3	315	0.00	30.077 
09:30	60.4	60.4	60.4	77	53.2	0	2	315	0.00	30.082 
09:35	60.9	60.9	60.9	74	52.6	0	3	45	0.00	30.082 
09:40	61.8	61.8	61.8	72	52.7	0	3	90	0.00	30.082 
09:45	62.6	62.6	62.6	71	53.1	0	2	90	0.00	30.084 
09:50	62.9	62.9	62.9	69	52.6	0	1	90	0.00	30.084 
09:55	62.7	62.7	62.7	68	52.0	1	5	270	0.00	30.084 
10:00	62.9	62.9	62.9	68	52.2	1	4	90	0.00	30.081 
10:05	63.5	63.5	63.5	70	53.5	1	3	112	0.00	30.081 
10:10	64.0	64.0	64.0	64	51.6	1	3	90	0.00	30.081 
10:15	63.9	63.9	63.9	63	51.1	1	3	90	0.00	30.086 
10:20	64.0	64.0	64.0	65	52.0	0	2	338	0.00	30.086 
10:25	64.3	64.3	64.3	63	51.4	0	3	338	0.00	30.086 
10:30	64.5	64.5	64.5	63	51.6	1	2	338	0.00	30.085 
10:35	64.0	64.0	64.0	63	51.1	0	2	338	0.00	30.085 
10:40	64.5	64.5	64.5	63	51.6	0	2	315	0.00	30.085 
10:45	65.0	65.0	65.0	59	50.3	1	4	315	0.00	30.083 
10:50	65.0	65.0	65.0	58	49.9	1	4	270	0.00	30.083 
10:55	65.2	65.2	65.2	58	50.0	1	5	270	0.00	30.083 
11:00	65.5	65.5	65.5	60	51.2	0	2	22	0.00	30.083 
11:05	65.3	65.3	65.3	56	49.2	1	4	90	0.00	30.083 
11:10	64.8	64.8	64.8	58	49.7	1	3	0	0.00	30.083 
11:15	65.2	65.2	65.2	58	50.0	1	3	315	0.00	30.084 
11:20	66.0	66.0	66.0	56	49.8	0	2	315	0.00	30.084 
11:25	66.6	66.6	66.6	56	50.4	1	2	315	0.00	30.084 
11:30	67.3	67.3	67.3	58	52.0	0	2	315	0.00	30.082 
11:35	67.9	67.9	67.9	50	48.6	1	3	135	0.00	30.082 
11:40	67.3	67.3	67.3	51	48.5	1	3	315	0.00	30.082 
11:45	66.4	66.4	66.4	49	46.7	1	3	315	0.00	30.081 
11:50	66.6	66.6	66.6	53	48.9	0	3	315	0.00	30.081 
11:55	66.1	66.1	66.1	53	48.5	1	2	338	0.00	30.081 
12:00	65.6	65.6	65.6	55	49.0	0	2	338	0.00	30.082 
12:05	66.0	66.0	66.0	50	46.8	1	3	315	0.00	30.082 
12:10	66.8	66.8	66.8	54	49.6	1	3	292	0.00	30.082 
12:15	66.3	66.3	66.3	50	47.1	0	2	315	0.00	30.082 
12:20	66.8	66.8	66.8	52	48.6	1	4	292	0.00	30.082 
12:25	67.4	67.4	67.4	51	48.6	1	4	0	0.00	30.082 
12:30	67.8	67.8	67.8	50	48.5	1	3	0	0.00	30.081 
12:35	68.3	68.3	68.3	48	47.8	1	3	270	0.00	30.081 
12:40	68.3	68.3	68.3	51	49.5	1	3	0	0.00	30.081 
12:45	68.8	68.8	68.8	47	47.7	1	4	0	0.00	30.077 
12:50	69.1	69.1	69.1	48	48.6	0	3	338	0.00	30.077 
12:55	69.3	69.3	69.3	44	46.4	1	5	292	0.00	30.077 
13:00	68.9	68.9	68.9	45	46.7	1	4	315	0.00	30.078 
13:05	69.1	69.1	69.1	47	48.0	1	3	315	0.00	30.078 
13:10	69.4	69.4	69.4	46	47.7	1	4	292	0.00	30.078 
13:15	69.8	69.8	69.8	48	49.2	1	4	270	0.00	30.076 
13:20	70.3	70.3	70.3	44	47.3	1	3	270	0.00	30.076 
13:25	70.3	70.3	70.3	44	47.3	2	4	270	0.00	30.076 
13:30	69.9	69.9	69.9	46	48.2	0	2	315	0.00	30.076 
13:35	69.3	69.3	69.3	44	46.4	1	3	315	0.00	30.076 
13:40	69.4	69.4	69.4	48	48.8	1	2	315	0.00	30.076 
13:45	69.1	69.1	69.1	46	47.4	1	4	292	0.00	30.073 
13:50	68.9	68.9	68.9	52	50.5	1	3	112	0.00	30.073 
13:55	68.9	68.9	68.9	47	47.8	1	3	292	0.00	30.073 
14:00	68.1	68.1	68.1	48	47.7	1	3	292	0.00	30.076 
14:05	67.4	67.4	67.4	51	48.6	0	2	292	0.00	30.076 
14:10	66.9	66.9	66.9	52	48.7	0	1	338	0.00	30.076 
14:15	67.1	67.1	67.1	53	49.4	0	1	338	0.00	30.076 
14:20	66.8	66.8	66.8	53	49.1	0	1	338	0.00	30.076 
14:25	67.1	67.1	67.1	52	48.9	0	2	338	0.00	30.076 
14:30	67.8	67.8	67.8	52	49.5	1	4	135	0.00	30.070 
14:35	68.4	68.4	68.4	50	49.0	0	2	135	0.00	30.070 
14:40	68.6	68.6	68.6	47	47.6	1	4	112	0.00	30.070 
14:45	69.1	69.1	69.1	50	49.7	0	2	68	0.00	30.064 
14:50	69.3	69.3	69.3	47	48.2	0	2	68	0.00	30.064 
14:55	69.1	69.1	69.1	50	49.7	1	4	112	0.00	30.064 
15:00	68.9	68.9	68.9	48	48.4	1	4	270	0.00	30.063 
15:05	68.4	68.4	68.4	50	49.0	0	2	0	0.00	30.063 
15:10	68.1	68.1	68.1	47	47.1	0	2	0	0.00	30.063 
15:15	68.1	68.1	68.1	48	47.7	0	2	0	0.00	30.062 
15:20	67.8	67.8	67.8	48	47.4	0	1	0	0.00	30.062 
15:25	67.8	67.8	67.8	47	46.8	0	2	0	0.00	30.062 
15:30	68.4	68.4	68.4	45	46.2	1	3	0	0.00	30.063 
15:35	68.9	68.9	68.9	47	47.8	0	2	0	0.00	30.063 
15:40	68.4	68.4	68.4	46	46.8	0	3	315	0.00	30.063 
15:45	67.8	67.8	67.8	51	49.0	0	1	315	0.00	30.066 
15:50	66.9	66.9	66.9	52	48.7	0	3	68	0.00	30.066 
15:55	66.4	66.4	66.4	54	49.2	0	1	68	0.00	30.066 
16:00	66.1	66.1	66.1	55	49.5	0	3	68	0.00	30.068 
16:05	66.0	66.0	66.0	54	48.9	0	2	45	0.00	30.068 
16:10	66.3	66.3	66.3	54	49.1	0	1	292	0.00	30.068 
16:15	66.9	66.9	66.9	50	47.6	1	2	292	0.00	30.065 
16:20	67.1	67.1	67.1	49	47.3	0	1	292	0.00	30.065 
16:25	66.8	66.8	66.8	46	45.3	0	2	292	0.00	30.065 
16:30	66.6	66.6	66.6	48	46.3	0	1	292	0.00	30.065 
16:35	66.6	66.6	66.6	50	47.4	0	2	292	0.00	30.065 
16:40	66.9	66.9	66.9	48	46.6	0	3	292	0.00	30.065 
16:45	67.1	67.1	67.1	50	47.8	0	1	292	0.00	30.067 
16:50	66.9	66.9	66.9	47	46.0	0	1	292	0.00	30.067 
16:55	66.8	66.8	66.8	49	47.0	0	1	292	0.00	30.067 
17:00	66.4	66.4	66.4	47	45.5	0	1	292	0.00	30.073 
17:05	66.1	66.1	66.1	46	44.7	0	1	292	0.00	30.073 
17:10	66.0	66.0	66.0	47	45.2	0	1	292	0.00	30.073 
17:15	66.0	66.0	66.0	48	45.7	0	1	292	0.00	30.074 
17:20	65.8	65.8	65.8	48	45.6	0	1	292	0.00	30.074 
17:25	66.0	66.0	66.0	48	45.7	0	1	292	0.00	30.074 
17:30	66.0	66.0	66.0	47	45.2	0	1	292	0.00	30.075 
17:35	66.3	66.3	66.3	46	44.9	0	1	292	0.00	30.075 
17:40	66.4	66.4	66.4	46	45.0	0	1	292	0.00	30.075 
17:45	66.8	66.8	66.8	45	44.8	0	1	292	0.00	30.077 
17:50	66.8	66.8	66.8	47	45.9	0	1	292	0.00	30.077 
17:55	66.8	66.8	66.8	46	45.3	0	1	292	0.00	30.077 
18:00	66.8	66.8	66.8	45	44.8	0	1	292	0.00	30.081 
18:05	66.6	66.6	66.6	47	45.7	0	1	292	0.00	30.081 
18:10	66.4	66.4	66.4	46	45.0	0	1	292	0.00	30.081 
18:15	66.1	66.1	66.1	47	45.3	0	1	292	0.00	30.085 
18:20	65.8	65.8	65.8	48	45.6	0	1	292	0.00	30.085 
18:25	65.5	65.5	65.5	50	46.4	0	0	---	0.00	30.085 
18:30	65.2	65.2	65.2	50	46.1	0	1	292	0.00	30.094 
18:35	64.8	64.8	64.8	52	46.8	0	0	---	0.00	30.094 
18:40	64.5	64.5	64.5	53	47.0	0	0	---	0.00	30.094 
18:45	64.0	64.0	64.0	54	47.0	0	0	---	0.00	30.099 
18:50	63.7	63.7	63.7	55	47.2	0	0	---	0.00	30.099 
18:55	63.2	63.2	63.2	55	46.8	0	0	---	0.00	30.099 
19:00	62.9	62.9	62.9	56	47.0	0	0	---	0.00	30.102 
19:05	62.4	62.4	62.4	57	47.0	0	0	---	0.00	30.102 
19:10	62.0	62.0	62.0	59	47.5	0	0	---	0.00	30.102 
19:15	61.5	61.5	61.5	60	47.5	0	0	---	0.00	30.103 
19:20	61.0	61.0	61.0	61	47.5	0	0	---	0.00	30.103 
19:25	60.5	60.5	60.5	62	47.4	0	0	---	0.00	30.103 
19:30	60.2	60.2	60.2	62	47.1	0	0	---	0.00	30.112 
19:35	59.9	59.9	59.9	62	46.8	0	0	---	0.00	30.112 
19:40	59.8	59.8	59.8	62	46.8	0	0	---	0.00	30.112 
19:45	59.6	59.6	59.6	63	47.0	0	0	---	0.00	30.119 
19:50	59.5	59.5	59.5	63	46.9	0	0	---	0.00	30.119 
19:55	59.2	59.2	59.2	64	47.0	0	0	---	0.00	30.119 
20:00	59.0	59.0	59.0	64	46.8	0	0	---	0.00	30.125 
20:05	58.9	58.9	58.9	64	46.7	0	0	---	0.00	30.125 
20:10	58.6	58.6	58.6	65	46.9	0	0	---	0.00	30.125 
20:15	58.3	58.3	58.3	65	46.6	0	0	---	0.00	30.132 
20:20	58.0	58.0	58.0	66	46.7	0	0	---	0.00	30.132 
20:25	57.8	57.8	57.8	67	46.9	0	0	---	0.00	30.132 
20:30	57.5	57.5	57.5	67	46.6	0	0	---	0.00	30.138 
20:35	57.2	57.2	57.2	68	46.7	0	0	---	0.00	30.138 
20:40	56.9	56.9	56.9	69	46.8	0	0	---	0.00	30.138 
20:45	56.6	56.6	56.6	69	46.5	0	0	---	0.00	30.146 
20:50	56.3	56.3	56.3	70	46.6	0	0	---	0.00	30.146 
20:55	56.0	56.0	56.0	71	46.7	0	0	---	0.00	30.146 
21:00	55.7	55.7	55.7	72	46.8	0	0	---	0.00	30.150 
21:05	55.4	55.4	55.4	73	46.9	0	0	---	0.00	30.150 
21:10	55.1	55.1	55.1	74	47.0	0	0	---	0.00	30.150 
21:15	54.8	54.8	54.8	75	47.0	0	0	---	0.00	30.147 
21:20	54.7	54.7	54.7	76	47.3	0	0	---	0.00	30.147 
21:25	54.4	54.4	54.4	76	47.0	0	0	---	0.00	30.147 
21:30	54.2	54.2	54.2	77	47.1	0	0	---	0.00	30.150 
21:35	54.1	54.1	54.1	77	47.0	0	0	---	0.00	30.150 
21:40	54.1	54.1	54.1	78	47.4	0	0	---	0.00	30.150 
21:45	54.2	54.2	54.2	77	47.1	0	0	---	0.00	30.154 
21:50	54.4	54.4	54.4	77	47.3	0	0	---	0.00	30.154 
21:55	54.5	54.5	54.5	76	47.1	0	0	---	0.00	30.154 
22:00	54.8	54.8	54.8	74	46.7	0	0	---	0.00	30.156 
22:05	55.1	55.1	55.1	73	46.6	0	1	292	0.00	30.156 
22:10	55.3	55.3	55.3	71	46.1	0	1	292	0.00	30.156 
22:15	55.3	55.3	55.3	71	46.1	0	1	292	0.00	30.152 
22:20	55.3	55.3	55.3	70	45.7	0	0	---	0.00	30.152 
22:25	55.3	55.3	55.3	69	45.3	0	0	---	0.00	30.152 
22:30	55.1	55.1	55.1	69	45.1	0	1	292	0.00	30.155 
22:35	55.1	55.1	55.1	69	45.1	0	1	292	0.00	30.155 
22:40	55.1	55.1	55.1	69	45.1	0	0	---	0.00	30.155 
22:45	55.0	55.0	55.0	68	44.6	0	1	292	0.00	30.156 
22:50	55.0	55.0	55.0	68	44.6	0	0	---	0.00	30.156 
22:55	55.0	55.0	55.0	68	44.6	0	1	292	0.00	30.156 
23:00	55.0	55.0	55.0	68	44.6	0	1	292	0.00	30.159 
23:05	55.0	55.0	55.0	68	44.6	0	0	---	0.00	30.159 
23:10	54.8	54.8	54.8	68	44.4	0	1	292	0.00	30.159 
23:15	54.7	54.7	54.7	68	44.3	0	0	---	0.00	30.161 
23:20	54.5	54.5	54.5	69	44.5	0	0	---	0.00	30.161 
23:25	54.4	54.4	54.4	69	44.4	0	1	292	0.00	30.161 
23:30	54.2	54.2	54.2	69	44.3	0	0	---	0.00	30.161 
23:35	54.1	54.1	54.1	69	44.2	0	0	---	0.00	30.161 
23:40	53.9	53.9	53.9	70	44.3	0	0	---	0.00	30.161 
23:45	53.6	53.6	53.6	70	44.1	0	0	---	0.00	30.163 
23:50	53.5	53.5	53.5	71	44.3	0	0	---	0.00	30.163 
23:55	53.3	53.3	53.3	71	44.1	0	0	---	0.00	30.163 

CoCoRaHS
IN-AL-39
A2 Web Hosting
Creative Commons License
GoDaddy
Look for:

loaded 2017-12-13 19:46:32 • last modified 2010-11-18 10:43:29
Privacy PolicyDisclaimer
• wx.awcolley.com is powered by PmWiki v.2002016 •
• all content (unless otherwise noted) © 2017 A W Colley